createdAt,value
2023-01-19T00:02:47.696Z,100.00
2023-01-19T00:05:50.822Z,100.00
2023-01-19T00:08:53.698Z,100.00
2023-01-19T00:11:56.564Z,100.00
2023-01-19T00:14:59.322Z,100.00
2023-01-19T00:18:02.275Z,100.00
2023-01-19T00:21:05.072Z,100.00
2023-01-19T00:24:08.084Z,100.00
2023-01-19T00:27:10.869Z,100.00
2023-01-19T00:30:14.005Z,100.00
2023-01-19T00:33:16.764Z,100.00
2023-01-19T00:36:19.894Z,100.00
2023-01-19T00:39:22.691Z,100.00
2023-01-19T00:42:40.555Z,100.00
2023-01-19T00:45:43.496Z,100.00
2023-01-19T00:48:46.620Z,100.00
2023-01-19T00:51:49.367Z,100.00
2023-01-19T00:54:55.360Z,100.00
2023-01-19T00:57:58.278Z,100.00
2023-01-19T01:01:04.029Z,100.00
2023-01-19T01:04:07.158Z,100.00
2023-01-19T01:07:09.952Z,100.00
2023-01-19T01:10:20.769Z,100.00
2023-01-19T01:13:26.375Z,100.00
2023-01-19T01:16:30.366Z,100.00
2023-01-19T01:19:33.198Z,100.00
2023-01-19T01:22:36.078Z,100.00
2023-01-19T01:25:38.992Z,100.00
2023-01-19T01:28:42.044Z,100.00
2023-01-19T01:31:44.994Z,100.00
2023-01-19T01:34:50.916Z,100.00
2023-01-19T01:37:53.863Z,100.00
2023-01-19T01:40:59.484Z,100.00
2023-01-19T01:44:06.558Z,100.00
2023-01-19T01:47:09.851Z,100.00
2023-01-19T01:50:27.392Z,100.00
2023-01-19T01:53:31.659Z,100.00
2023-01-19T01:56:37.845Z,100.00
2023-01-19T01:59:44.025Z,100.00
2023-01-19T02:03:02.405Z,100.00
2023-01-19T02:06:07.533Z,100.00
2023-01-19T02:09:30.360Z,100.00
2023-01-19T02:12:51.822Z,100.00
2023-01-19T02:16:00.499Z,100.00
2023-01-19T02:19:04.795Z,100.00
2023-01-19T02:22:10.175Z,100.00
2023-01-19T02:25:13.259Z,100.00
2023-01-19T02:28:20.253Z,100.00
2023-01-19T02:31:23.783Z,100.00
2023-01-19T02:34:29.932Z,100.00
2023-01-19T02:37:37.657Z,100.00
2023-01-19T02:40:42.235Z,100.00
2023-01-19T02:43:45.993Z,100.00
2023-01-19T02:46:49.646Z,100.00
2023-01-19T02:49:59.924Z,100.00
2023-01-19T02:53:39.080Z,100.00
2023-01-19T02:56:53.490Z,100.00
2023-01-19T03:00:37.803Z,100.00
2023-01-19T03:04:06.856Z,100.00
2023-01-19T03:07:15.005Z,100.00
2023-01-19T03:10:28.898Z,100.00
2023-01-19T03:13:46.443Z,100.00
2023-01-19T03:16:55.946Z,100.00
2023-01-19T03:19:59.053Z,100.00
2023-01-19T03:23:04.788Z,100.00
2023-01-19T03:26:10.826Z,100.00
2023-01-19T03:29:15.076Z,100.00
2023-01-19T03:32:21.177Z,100.00
2023-01-19T03:35:25.891Z,100.00
2023-01-19T03:38:29.584Z,100.00
2023-01-19T03:41:34.499Z,100.00
2023-01-19T03:44:38.672Z,100.00
2023-01-19T03:47:41.809Z,100.00
2023-01-19T03:50:47.876Z,100.00
2023-01-19T03:53:50.801Z,100.00
2023-01-19T03:56:54.264Z,100.00
2023-01-19T03:59:57.275Z,100.00
2023-01-19T04:03:00.841Z,100.00
2023-01-19T04:06:03.822Z,100.00
2023-01-19T04:09:08.465Z,100.00
2023-01-19T04:12:11.218Z,100.00
2023-01-19T04:15:18.783Z,100.00
2023-01-19T04:18:21.614Z,100.00
2023-01-19T04:21:25.845Z,100.00
2023-01-19T04:24:28.601Z,100.00
2023-01-19T04:27:31.496Z,100.00
2023-01-19T04:30:37.254Z,100.00
2023-01-19T04:33:40.068Z,100.00
2023-01-19T04:36:42.972Z,100.00
2023-01-19T04:39:45.723Z,100.00
2023-01-19T04:42:48.792Z,100.00
2023-01-19T04:45:51.614Z,100.00
2023-01-19T04:48:54.422Z,100.00
2023-01-19T04:51:57.480Z,100.00
2023-01-19T04:55:00.315Z,100.00
2023-01-19T04:58:03.277Z,100.00
2023-01-19T05:01:09.189Z,100.00
2023-01-19T05:04:12.147Z,100.00
2023-01-19T05:07:15.462Z,100.00
2023-01-19T05:10:18.344Z,100.00
2023-01-19T05:13:21.168Z,100.00
2023-01-19T05:16:23.981Z,100.00
2023-01-19T05:19:27.007Z,100.00
2023-01-19T05:22:30.049Z,100.00
2023-01-19T05:25:32.976Z,100.00
2023-01-19T05:28:35.830Z,100.00
2023-01-19T05:31:38.951Z,100.00
2023-01-19T05:34:41.898Z,100.00
2023-01-19T05:37:45.519Z,100.00
2023-01-19T05:40:48.327Z,100.00
2023-01-19T05:43:51.282Z,100.00
2023-01-19T05:46:54.191Z,100.00
2023-01-19T05:49:57.626Z,100.00
2023-01-19T05:53:01.799Z,100.00
2023-01-19T05:56:08.847Z,100.00
2023-01-19T05:59:11.882Z,100.00
2023-01-19T06:02:15.121Z,100.00
2023-01-19T06:05:18.141Z,100.00
2023-01-19T06:08:21.319Z,100.00
2023-01-19T06:11:24.163Z,100.00
2023-01-19T06:14:27.473Z,100.00
2023-01-19T06:17:32.595Z,100.00
2023-01-19T06:20:36.379Z,100.00
2023-01-19T06:23:39.208Z,100.00
2023-01-19T06:26:43.741Z,100.00
2023-01-19T06:29:46.629Z,100.00
2023-01-19T06:32:49.746Z,100.00
2023-01-19T06:35:52.937Z,100.00
2023-01-19T06:38:55.831Z,100.00
2023-01-19T06:41:58.621Z,100.00
2023-01-19T06:45:01.513Z,100.00
2023-01-19T06:48:04.713Z,100.00
2023-01-19T06:51:07.669Z,100.00
2023-01-19T06:54:10.618Z,100.00
2023-01-19T06:57:14.584Z,100.00
2023-01-19T07:00:17.999Z,100.00
2023-01-19T07:03:23.473Z,100.00
2023-01-19T07:06:26.581Z,100.00
2023-01-19T07:09:29.843Z,100.00
2023-01-19T07:12:33.024Z,100.00
2023-01-19T07:15:37.905Z,100.00
2023-01-19T07:18:41.841Z,100.00
2023-01-19T07:21:44.825Z,100.00
2023-01-19T07:24:47.646Z,100.00
2023-01-19T07:27:50.591Z,100.00
2023-01-19T07:30:56.369Z,100.00
2023-01-19T07:34:00.341Z,100.00
2023-01-19T07:37:03.963Z,100.00
2023-01-19T07:40:07.207Z,99.98
2023-01-19T07:43:10.036Z,100.00
2023-01-19T07:46:12.991Z,100.00
2023-01-19T07:49:16.420Z,100.00
2023-01-19T07:52:19.377Z,100.00
2023-01-19T07:55:23.752Z,100.00
2023-01-19T07:58:27.075Z,100.00
2023-01-19T08:01:30.272Z,100.00
2023-01-19T08:04:33.321Z,100.00
2023-01-19T08:07:36.296Z,100.00
2023-01-19T08:10:39.207Z,100.00
2023-01-19T08:13:42.246Z,100.00
2023-01-19T08:16:45.056Z,100.00
2023-01-19T08:19:48.206Z,99.78
2023-01-19T08:22:51.248Z,99.32
2023-01-19T08:25:54.293Z,99.38
2023-01-19T08:29:02.490Z,99.53
2023-01-19T08:32:07.094Z,99.11
2023-01-19T08:35:10.201Z,99.21
2023-01-19T08:38:13.193Z,99.51
2023-01-19T08:41:17.197Z,97.75
2023-01-19T08:44:20.111Z,98.00
2023-01-19T08:47:22.988Z,96.65
2023-01-19T08:50:27.322Z,97.39
2023-01-19T08:53:30.546Z,95.63
2023-01-19T08:56:33.414Z,95.08
2023-01-19T08:59:37.238Z,96.22
2023-01-19T09:02:40.204Z,96.65
2023-01-19T09:05:43.434Z,96.91
2023-01-19T09:08:48.048Z,96.31
2023-01-19T09:11:52.037Z,96.40
2023-01-19T09:14:55.606Z,96.91
2023-01-19T09:17:58.884Z,95.75
2023-01-19T09:21:05.738Z,96.29
2023-01-19T09:24:09.575Z,95.06
2023-01-19T09:27:12.266Z,95.04
2023-01-19T09:30:15.397Z,94.12
2023-01-19T09:33:18.937Z,94.47
2023-01-19T09:36:21.805Z,93.58
2023-01-19T09:39:26.689Z,93.45
2023-01-19T09:42:48.784Z,93.56
2023-01-19T09:46:12.589Z,93.29
2023-01-19T09:49:28.469Z,93.36
2023-01-19T09:52:33.801Z,93.66
2023-01-19T09:55:36.745Z,93.43
2023-01-19T09:58:41.824Z,93.07
2023-01-19T10:02:00.549Z,93.41
2023-01-19T10:05:37.020Z,92.14
2023-01-19T10:08:43.557Z,93.97
2023-01-19T10:11:53.471Z,93.69
2023-01-19T10:15:13.630Z,93.21
2023-01-19T10:18:31.353Z,93.00
2023-01-19T10:21:39.582Z,93.04
2023-01-19T10:24:44.403Z,93.60
2023-01-19T10:27:47.541Z,91.48
2023-01-19T10:30:51.215Z,91.00
2023-01-19T10:33:54.768Z,91.58
2023-01-19T10:37:03.500Z,91.23
2023-01-19T10:40:09.618Z,92.14
2023-01-19T10:43:45.285Z,90.15
2023-01-19T10:46:49.676Z,91.98
2023-01-19T10:49:53.328Z,91.52
2023-01-19T10:53:00.360Z,91.06
2023-01-19T10:56:35.470Z,91.02
2023-01-19T10:59:45.247Z,91.47
2023-01-19T11:02:50.920Z,92.77
2023-01-19T11:05:54.083Z,91.52
2023-01-19T11:09:17.589Z,91.64
2023-01-19T11:12:23.893Z,91.82
2023-01-19T11:15:43.228Z,92.74
2023-01-19T11:18:47.502Z,91.87
2023-01-19T11:21:50.904Z,92.48
2023-01-19T11:24:58.031Z,91.62
2023-01-19T11:28:01.575Z,92.01
2023-01-19T11:31:27.496Z,91.70
2023-01-19T11:34:37.690Z,92.05
2023-01-19T11:37:43.497Z,91.55
2023-01-19T11:40:57.573Z,92.02
2023-01-19T11:44:17.153Z,91.21
2023-01-19T11:47:31.014Z,92.13
2023-01-19T11:50:36.648Z,91.45
2023-01-19T11:53:44.069Z,92.07
2023-01-19T11:56:49.355Z,92.30
2023-01-19T11:59:55.640Z,92.85
2023-01-19T12:03:08.975Z,92.53
2023-01-19T12:06:19.714Z,93.14
2023-01-19T12:09:23.231Z,93.86
2023-01-19T12:12:27.748Z,93.97
2023-01-19T12:15:37.759Z,94.42
2023-01-19T12:18:51.484Z,94.92
2023-01-19T12:21:54.689Z,95.84
2023-01-19T12:25:22.937Z,97.14
2023-01-19T12:28:32.240Z,97.12
2023-01-19T12:31:35.586Z,97.93
2023-01-19T12:34:46.907Z,98.32
2023-01-19T12:37:55.836Z,98.71
2023-01-19T12:41:19.270Z,98.28
2023-01-19T12:44:25.896Z,100.00
2023-01-19T12:47:32.376Z,99.69
2023-01-19T12:50:38.139Z,100.00
2023-01-19T12:53:59.978Z,100.00
2023-01-19T12:57:18.982Z,100.00
2023-01-19T13:00:25.044Z,100.00
2023-01-19T13:03:28.452Z,100.00
2023-01-19T13:06:49.679Z,100.00
2023-01-19T13:09:57.245Z,100.00
2023-01-19T13:13:22.935Z,100.00
2023-01-19T13:16:29.025Z,100.00
2023-01-19T13:19:44.768Z,100.00
2023-01-19T13:22:50.251Z,100.00
2023-01-19T13:26:03.330Z,100.00
2023-01-19T13:29:25.710Z,100.00
2023-01-19T13:32:31.994Z,100.00
2023-01-19T13:35:38.193Z,100.00
2023-01-19T13:38:41.794Z,100.00
2023-01-19T13:41:45.071Z,100.00
2023-01-19T13:44:52.680Z,100.00
2023-01-19T13:47:57.743Z,100.00
2023-01-19T13:51:18.141Z,100.00
2023-01-19T13:54:26.286Z,100.00
2023-01-19T13:57:32.954Z,100.00
2023-01-19T14:00:35.997Z,100.00
2023-01-19T14:03:42.306Z,100.00
2023-01-19T14:06:48.935Z,100.00
2023-01-19T14:10:06.518Z,100.00
2023-01-19T14:13:18.518Z,100.00
2023-01-19T14:16:25.818Z,100.00
2023-01-19T14:19:28.880Z,100.00
2023-01-19T14:22:44.385Z,98.51
2023-01-19T14:25:47.168Z,100.00
2023-01-19T14:28:50.926Z,100.00
2023-01-19T14:32:21.515Z,100.00
2023-01-19T14:35:25.525Z,100.00
2023-01-19T14:38:28.427Z,100.00
2023-01-19T14:41:39.737Z,100.00
2023-01-19T14:44:48.395Z,100.00
2023-01-19T14:48:04.904Z,100.00
2023-01-19T14:51:07.773Z,100.00
2023-01-19T14:54:19.641Z,100.00
2023-01-19T14:57:22.459Z,100.00
2023-01-19T15:00:27.415Z,100.00
2023-01-19T15:03:49.327Z,100.00
2023-01-19T15:06:56.953Z,100.00
2023-01-19T15:09:59.895Z,100.00
2023-01-19T15:13:05.911Z,100.00
2023-01-19T15:16:11.945Z,100.00
2023-01-19T15:19:17.170Z,100.00
2023-01-19T15:22:20.173Z,100.00
2023-01-19T15:25:27.931Z,100.00
2023-01-19T15:28:31.786Z,100.00
2023-01-19T15:31:38.664Z,100.00
2023-01-19T15:34:42.232Z,100.00
2023-01-19T15:37:46.873Z,100.00
2023-01-19T15:40:51.628Z,100.00
2023-01-19T15:43:54.740Z,100.00
2023-01-19T15:46:58.121Z,100.00
2023-01-19T15:50:01.878Z,100.00
2023-01-19T15:53:05.822Z,100.00
2023-01-19T15:56:24.946Z,100.00
2023-01-19T15:59:28.289Z,100.00
2023-01-19T16:02:32.870Z,100.00
2023-01-19T16:05:42.898Z,98.79
2023-01-19T16:08:46.292Z,97.93
2023-01-19T16:11:50.575Z,96.23
2023-01-19T16:14:53.546Z,95.99
2023-01-19T16:17:57.649Z,95.01
2023-01-19T16:21:01.811Z,95.33
2023-01-19T16:24:10.026Z,93.40
2023-01-19T16:27:14.652Z,92.85
2023-01-19T16:30:19.619Z,91.07
2023-01-19T16:33:23.754Z,93.05
2023-01-19T16:36:32.338Z,92.94
2023-01-19T16:39:35.246Z,93.23
2023-01-19T16:42:41.042Z,94.58
2023-01-19T16:46:02.395Z,93.93
2023-01-19T16:49:16.293Z,92.12
2023-01-19T16:52:21.499Z,92.23
2023-01-19T16:55:24.826Z,93.99
2023-01-19T16:58:27.867Z,94.69
2023-01-19T17:01:30.859Z,95.08
2023-01-19T17:04:34.875Z,96.41
2023-01-19T17:07:37.644Z,96.73
2023-01-19T17:10:42.208Z,96.12
2023-01-19T17:13:45.059Z,96.55
2023-01-19T17:16:48.533Z,96.58
2023-01-19T17:19:51.867Z,96.53
2023-01-19T17:22:56.689Z,95.75
2023-01-19T17:26:00.217Z,95.65
2023-01-19T17:29:07.930Z,95.68
2023-01-19T17:32:13.477Z,94.99
2023-01-19T17:35:19.006Z,95.86
2023-01-19T17:38:22.147Z,96.22
2023-01-19T17:41:27.798Z,95.19
2023-01-19T17:44:31.144Z,94.34
2023-01-19T17:47:34.198Z,94.17
2023-01-19T17:50:37.169Z,93.96
2023-01-19T17:53:42.062Z,93.58
2023-01-19T17:56:45.012Z,92.07
2023-01-19T17:59:48.121Z,92.65
2023-01-19T18:02:53.248Z,91.89
2023-01-19T18:05:56.237Z,88.73
2023-01-19T18:09:00.724Z,87.79
2023-01-19T18:12:04.204Z,88.90
2023-01-19T18:15:09.178Z,89.11
2023-01-19T18:18:11.926Z,89.35
2023-01-19T18:21:15.241Z,89.10
2023-01-19T18:24:18.327Z,88.26
2023-01-19T18:27:22.179Z,87.18
2023-01-19T18:30:26.579Z,86.69
2023-01-19T18:33:31.564Z,86.76
2023-01-19T18:36:35.214Z,86.07
2023-01-19T18:39:38.409Z,86.80
2023-01-19T18:42:41.715Z,85.57
2023-01-19T18:45:48.344Z,84.79
2023-01-19T18:48:52.119Z,85.04
2023-01-19T18:51:58.358Z,84.07
2023-01-19T18:55:01.698Z,83.43
2023-01-19T18:58:07.243Z,84.04
2023-01-19T19:01:36.732Z,83.67
2023-01-19T19:04:41.542Z,84.85
2023-01-19T19:07:45.681Z,84.29
2023-01-19T19:10:48.801Z,83.08
2023-01-19T19:13:54.251Z,84.46
2023-01-19T19:16:57.714Z,84.26
2023-01-19T19:20:00.884Z,84.23
2023-01-19T19:23:04.042Z,85.34
2023-01-19T19:26:09.804Z,84.66
2023-01-19T19:29:13.392Z,85.54
2023-01-19T19:32:20.653Z,84.68
2023-01-19T19:35:24.214Z,85.52
2023-01-19T19:38:28.247Z,84.98
2023-01-19T19:41:35.052Z,85.75
2023-01-19T19:44:38.280Z,86.59
2023-01-19T19:47:43.127Z,87.34
2023-01-19T19:50:46.499Z,88.12
2023-01-19T19:53:51.995Z,88.60
2023-01-19T19:56:58.133Z,88.79
2023-01-19T20:00:02.551Z,89.01
2023-01-19T20:03:22.229Z,89.56
2023-01-19T20:06:27.964Z,90.05
2023-01-19T20:09:32.962Z,91.00
2023-01-19T20:12:36.443Z,91.41
2023-01-19T20:15:39.994Z,91.90
2023-01-19T20:18:48.781Z,92.22
2023-01-19T20:21:53.082Z,92.57
2023-01-19T20:24:56.188Z,93.34
2023-01-19T20:28:00.222Z,93.49
2023-01-19T20:31:13.179Z,93.32
2023-01-19T20:34:18.141Z,93.51
2023-01-19T20:37:22.919Z,93.41
2023-01-19T20:40:26.280Z,93.72
2023-01-19T20:43:30.736Z,93.67
2023-01-19T20:46:33.863Z,93.96
2023-01-19T20:49:37.457Z,94.05
2023-01-19T20:52:40.506Z,94.46
2023-01-19T20:55:43.536Z,94.80
2023-01-19T20:58:46.605Z,95.51
2023-01-19T21:01:50.398Z,95.92
2023-01-19T21:04:54.993Z,96.04
2023-01-19T21:07:58.094Z,96.31
2023-01-19T21:11:01.592Z,96.61
2023-01-19T21:14:05.880Z,97.21
2023-01-19T21:17:09.137Z,97.33
2023-01-19T21:20:12.500Z,98.03
2023-01-19T21:23:15.744Z,98.92
2023-01-19T21:26:18.634Z,99.36
2023-01-19T21:29:21.376Z,100.00
2023-01-19T21:32:24.150Z,100.00
2023-01-19T21:35:26.955Z,100.00
2023-01-19T21:38:30.460Z,100.00
2023-01-19T21:41:38.261Z,100.00
2023-01-19T21:44:41.102Z,100.00
2023-01-19T21:47:44.030Z,100.00
2023-01-19T21:50:57.282Z,100.00
2023-01-19T21:54:00.674Z,100.00
2023-01-19T21:57:03.625Z,100.00
2023-01-19T22:00:07.291Z,100.00
2023-01-19T22:03:10.364Z,100.00
2023-01-19T22:06:14.765Z,100.00
2023-01-19T22:09:17.496Z,100.00
2023-01-19T22:12:26.821Z,100.00
2023-01-19T22:15:30.799Z,100.00
2023-01-19T22:18:35.877Z,100.00
2023-01-19T22:21:38.802Z,100.00
2023-01-19T22:24:44.565Z,100.00
2023-01-19T22:27:47.231Z,100.00
2023-01-19T22:30:50.146Z,100.00
2023-01-19T22:33:53.325Z,100.00
2023-01-19T22:36:56.108Z,100.00
2023-01-19T22:39:59.142Z,100.00
2023-01-19T22:43:01.873Z,100.00
2023-01-19T22:46:06.630Z,100.00
2023-01-19T22:49:13.618Z,100.00
2023-01-19T22:52:16.424Z,100.00
2023-01-19T22:55:19.163Z,100.00
2023-01-19T22:58:22.375Z,100.00
2023-01-19T23:01:33.789Z,100.00
2023-01-19T23:04:36.689Z,100.00
2023-01-19T23:07:39.913Z,100.00
2023-01-19T23:10:42.665Z,100.00
2023-01-19T23:13:46.212Z,100.00
2023-01-19T23:16:49.032Z,100.00
2023-01-19T23:19:51.761Z,100.00
2023-01-19T23:22:54.596Z,100.00
2023-01-19T23:26:02.201Z,100.00
2023-01-19T23:29:07.818Z,100.00
2023-01-19T23:32:10.585Z,100.00
2023-01-19T23:35:14.581Z,100.00
2023-01-19T23:38:17.576Z,100.00
2023-01-19T23:41:20.891Z,100.00
2023-01-19T23:44:23.713Z,100.00
2023-01-19T23:47:26.438Z,100.00
2023-01-19T23:50:29.284Z,100.00
2023-01-19T23:53:32.091Z,100.00
2023-01-19T23:56:37.351Z,100.00
2023-01-19T23:59:40.232Z,100.00
